Time;durP1;ratioP1;P1;durP2;ratioP2;P2;SDS_P1;SDS_P2;PMS_P1;PMS_P2;Temp;Humidity;BMP_temperature;BMP_pressure;BME280_temperature;BME280_humidity;BME280_pressure;Samples;Min_cycle;Max_cycle;Signal;HPM_P1;HPM_P2
2023/07/24 00:00:25;;;;;;;2.38;2.28;;;;;;;;;;5039081;28;20054;-18
2023/07/24 00:02:53;;;;;;;2.28;2.15;;;;;;;;;;5056344;28;20028;-19
2023/07/24 00:05:19;;;;;;;2.70;2.60;;;;;;;;;;5056358;28;20025;-20
2023/07/24 00:07:45;;;;;;;2.65;2.50;;;;;;;;;;5056442;28;20021;-21
2023/07/24 00:10:11;;;;;;;2.35;2.25;;;;;;;;;;5073798;28;20448;-20
2023/07/24 00:12:38;;;;;;;2.58;2.40;;;;;;;;;;5076203;28;20027;-20
2023/07/24 00:15:04;;;;;;;2.20;2.10;;;;;;;;;;5076052;28;20028;-22
2023/07/24 00:17:30;;;;;;;2.70;2.60;;;;;;;;;;5076242;28;20050;-20
2023/07/24 00:19:57;;;;;;;2.55;2.45;;;;;;;;;;5076290;28;20096;-18
2023/07/24 00:22:23;;;;;;;2.35;2.25;;;;;;;;;;5076263;28;20021;-20
2023/07/24 00:24:49;;;;;;;2.05;1.95;;;;;;;;;;5076201;28;20024;-20
2023/07/24 00:27:15;;;;;;;2.15;2.05;;;;;;;;;;5075776;28;20039;-20
2023/07/24 00:29:41;;;;;;;2.00;1.90;;;;;;;;;;5075807;28;20024;-20
2023/07/24 00:32:07;;;;;;;2.45;2.35;;;;;;;;;;5076045;28;20351;-20
2023/07/24 00:34:33;;;;;;;2.20;2.10;;;;;;;;;;5075629;28;20520;-20
2023/07/24 00:37:00;;;;;;;2.08;1.98;;;;;;;;;;5075760;28;20020;-21
2023/07/24 00:39:28;;;;;;;2.05;1.95;;;;;;;;;;5075623;28;20020;-20
2023/07/24 00:41:54;;;;;;;2.60;2.50;;;;;;;;;;5075797;28;20352;-19
2023/07/24 00:44:20;;;;;;;1.88;1.77;;;;;;;;;;5075529;28;20035;-18
2023/07/24 00:46:46;;;;;;;2.30;2.20;;;;;;;;;;5075638;28;20034;-18
2023/07/24 00:49:13;;;;;;;2.22;2.13;;;;;;;;;;5057804;28;20028;-21
2023/07/24 00:51:39;;;;;;;2.13;2.03;;;;;;;;;;5075393;28;20101;-20
2023/07/24 00:54:06;;;;;;;2.40;2.30;;;;;;;;;;5075262;28;20082;-19
2023/07/24 00:56:33;;;;;;;2.58;2.47;;;;;;;;;;5075182;28;20024;-21
2023/07/24 00:58:59;;;;;;;2.20;2.10;;;;;;;;;;5075532;28;20017;-19
2023/07/24 01:01:26;;;;;;;2.17;1.98;;;;;;;;;;5075219;28;20025;-22
2023/07/24 01:03:52;;;;;;;2.20;2.10;;;;;;;;;;5075162;28;20055;-20
2023/07/24 01:06:19;;;;;;;2.10;2.00;;;;;;;;;;5075598;28;20475;-20
2023/07/24 01:08:45;;;;;;;1.95;1.85;;;;;;;;;;5068559;28;20148;-20
2023/07/24 01:11:16;;;;;;;2.42;2.33;;;;;;;;;;5055347;28;20036;-19
2023/07/24 01:13:42;;;;;;;;;;;;;;;;;;5037848;28;20024;-19
2023/07/24 01:16:10;;;;;;;2.05;1.95;;;;;;;;;;5054993;28;20228;-20
2023/07/24 01:18:37;;;;;;;2.40;2.17;;;;;;;;;;5054890;28;20025;-18
2023/07/24 01:21:04;;;;;;;2.55;2.35;;;;;;;;;;5055158;28;20356;-24
2023/07/24 01:23:56;;;;;;;2.00;1.90;;;;;;;;;;5055399;28;20017;-23
2023/07/24 01:26:23;;;;;;;2.22;2.13;;;;;;;;;;5055040;28;20036;-20
2023/07/24 01:28:50;;;;;;;1.75;1.65;;;;;;;;;;5054780;28;20363;-21
2023/07/24 01:31:17;;;;;;;2.20;2.10;;;;;;;;;;5054800;28;20029;-20
2023/07/24 01:33:44;;;;;;;2.10;2.00;;;;;;;;;;5054907;28;20029;-18
2023/07/24 01:36:10;;;;;;;2.20;2.10;;;;;;;;;;5054706;28;20173;-17
2023/07/24 01:38:37;;;;;;;2.15;2.05;;;;;;;;;;5054576;28;20026;-19
2023/07/24 01:41:04;;;;;;;1.85;1.75;;;;;;;;;;5054630;28;20060;-21
2023/07/24 01:43:31;;;;;;;2.20;2.10;;;;;;;;;;5054574;28;20047;-18
2023/07/24 01:45:58;;;;;;;2.03;1.92;;;;;;;;;;5054575;28;20391;-21
2023/07/24 01:48:24;;;;;;;2.10;2.00;;;;;;;;;;5054518;28;20025;-18
2023/07/24 01:50:50;;;;;;;1.77;1.67;;;;;;;;;;5055059;28;20059;-19
2023/07/24 01:53:16;;;;;;;2.35;2.25;;;;;;;;;;5054676;28;20068;-17
2023/07/24 01:55:42;;;;;;;2.10;2.00;;;;;;;;;;5054735;28;20029;-20
2023/07/24 01:58:08;;;;;;;2.03;1.92;;;;;;;;;;5054416;28;20029;-23
2023/07/24 02:00:34;;;;;;;2.13;2.03;;;;;;;;;;5054446;28;20095;-20
2023/07/24 02:03:01;;;;;;;2.22;2.13;;;;;;;;;;5054677;28;20064;-20
2023/07/24 02:05:27;;;;;;;2.33;2.22;;;;;;;;;;5054619;28;20330;-23
2023/07/24 02:07:53;;;;;;;2.50;2.40;;;;;;;;;;5054576;28;20202;-18
2023/07/24 02:10:19;;;;;;;2.35;2.25;;;;;;;;;;5072999;28;20479;-20
2023/07/24 02:12:45;;;;;;;2.08;1.98;;;;;;;;;;5074623;28;20163;-23
2023/07/24 02:15:11;;;;;;;1.95;1.85;;;;;;;;;;5074326;28;20052;-22
2023/07/24 02:17:38;;;;;;;2.28;2.17;;;;;;;;;;5074221;28;20024;-18
2023/07/24 02:20:05;;;;;;;1.73;1.63;;;;;;;;;;5074742;28;20039;-23
2023/07/24 02:22:31;;;;;;;1.98;1.88;;;;;;;;;;5078511;28;20017;-20
2023/07/24 02:24:57;;;;;;;2.45;2.25;;;;;;;;;;5078558;28;20343;-19
2023/07/24 02:27:27;;;;;;;2.55;2.35;;;;;;;;;;5078110;28;20104;-21
2023/07/24 02:29:54;;;;;;;1.93;1.83;;;;;;;;;;5060506;28;20047;-18
2023/07/24 02:32:23;;;;;;;2.33;2.22;;;;;;;;;;5078042;28;20486;-21
2023/07/24 02:34:50;;;;;;;2.30;2.20;;;;;;;;;;5077950;28;20036;-20
2023/07/24 02:37:17;;;;;;;2.10;2.00;;;;;;;;;;5077939;28;20096;-20
2023/07/24 02:39:43;;;;;;;2.28;2.17;;;;;;;;;;5078169;28;20081;-19
2023/07/24 02:42:09;;;;;;;1.90;1.80;;;;;;;;;;5078161;28;20025;-21
2023/07/24 02:44:35;;;;;;;1.83;1.73;;;;;;;;;;5078100;28;20048;-18
2023/07/24 02:47:01;;;;;;;2.60;2.40;;;;;;;;;;5077917;28;20035;-19
2023/07/24 02:49:28;;;;;;;2.38;2.28;;;;;;;;;;5077744;28;20032;-27
2023/07/24 02:51:54;;;;;;;2.08;1.98;;;;;;;;;;5077728;28;20035;-22
2023/07/24 02:54:20;;;;;;;1.73;1.63;;;;;;;;;;5077864;28;20047;-22
2023/07/24 02:56:47;;;;;;;2.10;2.00;;;;;;;;;;5077570;28;20337;-21
2023/07/24 02:59:13;;;;;;;1.73;1.63;;;;;;;;;;5077847;28;20407;-23
2023/07/24 03:01:39;;;;;;;2.10;2.00;;;;;;;;;;5077498;28;20436;-17
2023/07/24 03:04:05;;;;;;;2.15;2.05;;;;;;;;;;5077750;28;20035;-21
2023/07/24 03:06:31;;;;;;;2.17;2.08;;;;;;;;;;5077388;28;20020;-19
2023/07/24 03:08:57;;;;;;;1.73;1.63;;;;;;;;;;5077224;28;20135;-21
2023/07/24 03:11:25;;;;;;;2.25;2.15;;;;;;;;;;5077556;28;20044;-19
2023/07/24 03:13:51;;;;;;;1.90;1.80;;;;;;;;;;5077243;28;20531;-20
2023/07/24 03:16:19;;;;;;;2.20;2.10;;;;;;;;;;5077245;28;20021;-22
2023/07/24 03:18:45;;;;;;;1.83;1.73;;;;;;;;;;5077495;28;20024;-24
2023/07/24 03:21:11;;;;;;;2.08;1.98;;;;;;;;;;5077418;28;20374;-19
2023/07/24 03:23:37;;;;;;;2.00;1.90;;;;;;;;;;5077128;28;20035;-20
2023/07/24 03:26:04;;;;;;;2.00;1.90;;;;;;;;;;5077391;28;20031;-23
2023/07/24 03:28:30;;;;;;;2.17;2.08;;;;;;;;;;5076996;28;20051;-18
2023/07/24 03:30:56;;;;;;;3.28;1.67;;;;;;;;;;5076720;28;20025;-19
2023/07/24 03:33:22;;;;;;;1.92;1.83;;;;;;;;;;5076853;28;20021;-22
2023/07/24 03:35:48;;;;;;;1.90;1.80;;;;;;;;;;5077198;28;20462;-21
2023/07/24 03:38:14;;;;;;;1.67;1.58;;;;;;;;;;5077083;28;20031;-23
2023/07/24 03:40:40;;;;;;;1.88;1.77;;;;;;;;;;5076806;28;20024;-19
2023/07/24 03:43:06;;;;;;;2.17;2.08;;;;;;;;;;5076715;28;20108;-21
2023/07/24 03:45:32;;;;;;;2.22;2.13;;;;;;;;;;5076969;28;20043;-27
2023/07/24 03:47:59;;;;;;;2.00;1.90;;;;;;;;;;5076620;28;20052;-23
2023/07/24 03:50:25;;;;;;;1.90;1.80;;;;;;;;;;5076903;28;20024;-24
2023/07/24 03:52:51;;;;;;;2.13;1.98;;;;;;;;;;5058972;28;20510;-26
2023/07/24 03:55:17;;;;;;;2.63;2.53;;;;;;;;;;5076412;28;20036;-19
2023/07/24 03:57:43;;;;;;;2.10;2.00;;;;;;;;;;5076382;28;20086;-19
2023/07/24 04:00:09;;;;;;;2.38;2.17;;;;;;;;;;5076640;28;20108;-20
2023/07/24 04:02:36;;;;;;;1.90;1.80;;;;;;;;;;5076380;28;20024;-22
2023/07/24 04:05:02;;;;;;;1.80;1.70;;;;;;;;;;5076602;28;20459;-22
2023/07/24 04:07:28;;;;;;;1.90;1.80;;;;;;;;;;5076408;28;20100;-20
2023/07/24 04:09:54;;;;;;;1.75;1.65;;;;;;;;;;5060845;28;20056;-23
2023/07/24 04:12:20;;;;;;;1.90;1.80;;;;;;;;;;5056053;28;20041;-20
2023/07/24 04:14:48;;;;;;;2.20;2.10;;;;;;;;;;5056191;28;20082;-21
2023/07/24 04:17:14;;;;;;;1.52;1.52;;;;;;;;;;5055774;28;20047;-24
2023/07/24 04:19:40;;;;;;;1.75;1.65;;;;;;;;;;5056130;28;20070;-22
2023/07/24 04:22:07;;;;;;;1.85;1.75;;;;;;;;;;5056403;28;20032;-22
2023/07/24 04:24:33;;;;;;;1.83;1.73;;;;;;;;;;5056276;28;20024;-19
2023/07/24 04:26:59;;;;;;;3.65;1.80;;;;;;;;;;5055801;28;20403;-20
2023/07/24 04:29:26;;;;;;;2.30;2.08;;;;;;;;;;5055630;28;20021;-19
2023/07/24 04:31:52;;;;;;;2.42;1.77;;;;;;;;;;5055843;28;20032;-21
2023/07/24 04:34:18;;;;;;;2.55;1.95;;;;;;;;;;5055473;28;20447;-21
2023/07/24 04:36:44;;;;;;;2.95;1.85;;;;;;;;;;5055560;28;20454;-20
2023/07/24 04:39:10;;;;;;;2.17;1.98;;;;;;;;;;5055344;28;20040;-24
2023/07/24 04:41:36;;;;;;;1.98;1.80;;;;;;;;;;5055269;28;20029;-18
2023/07/24 04:44:03;;;;;;;5.00;2.53;;;;;;;;;;5054297;28;20052;-17
2023/07/24 04:46:29;;;;;;;3.20;2.22;;;;;;;;;;5055272;28;20048;-18
2023/07/24 04:48:55;;;;;;;1.83;1.73;;;;;;;;;;5055701;28;20024;-19
2023/07/24 04:51:21;;;;;;;2.75;1.90;;;;;;;;;;5055237;28;20103;-22
2023/07/24 04:53:47;;;;;;;2.00;1.90;;;;;;;;;;5054992;28;20025;-21
2023/07/24 04:56:13;;;;;;;1.92;1.83;;;;;;;;;;5054995;28;20021;-19
2023/07/24 04:58:39;;;;;;;2.65;2.30;;;;;;;;;;5054904;28;20082;-20
2023/07/24 05:01:05;;;;;;;3.47;2.00;;;;;;;;;;5055130;28;20032;-18
2023/07/24 05:03:32;;;;;;;2.03;1.92;;;;;;;;;;5055335;28;20025;-21
2023/07/24 05:05:58;;;;;;;3.20;1.83;;;;;;;;;;5055008;28;20112;-24
2023/07/24 05:08:24;;;;;;;2.00;1.90;;;;;;;;;;5057307;28;20494;-20
2023/07/24 05:10:57;;;;;;;2.13;2.03;;;;;;;;;;5075059;28;20106;-20
2023/07/24 05:13:23;;;;;;;3.42;1.90;;;;;;;;;;5074854;28;20025;-23
2023/07/24 05:15:49;;;;;;;2.05;1.95;;;;;;;;;;5075234;28;20024;-20
2023/07/24 05:18:15;;;;;;;3.30;2.22;;;;;;;;;;5074877;28;20024;-18
2023/07/24 05:20:48;;;;;;;1.98;1.88;;;;;;;;;;5074522;28;20091;-18
2023/07/24 05:23:14;;;;;;;2.15;1.92;;;;;;;;;;5074642;28;20017;-22
2023/07/24 05:25:41;;;;;;;4.93;2.53;;;;;;;;;;5074775;28;20052;-21
2023/07/24 05:28:07;;;;;;;5.65;1.73;;;;;;;;;;5074886;28;20013;-21
2023/07/24 05:30:33;;;;;;;3.58;1.90;;;;;;;;;;5074358;28;20025;-21
2023/07/24 05:32:59;;;;;;;2.40;2.22;;;;;;;;;;5074363;28;20213;-25
2023/07/24 05:35:26;;;;;;;2.92;2.00;;;;;;;;;;5074716;28;20125;-21
2023/07/24 05:37:52;;;;;;;5.60;1.90;;;;;;;;;;5074261;28;20021;-22
2023/07/24 05:40:18;;;;;;;4.57;1.73;;;;;;;;;;5074443;28;20447;-20
2023/07/24 05:42:44;;;;;;;2.97;1.67;;;;;;;;;;5074307;28;20025;-18
2023/07/24 05:45:14;;;;;;;2.45;1.80;;;;;;;;;;5074483;28;20056;-21
2023/07/24 05:47:41;;;;;;;3.42;2.40;;;;;;;;;;5074509;28;20025;-21
2023/07/24 05:50:07;;;;;;;3.50;1.90;;;;;;;;;;5074124;28;20056;-18
2023/07/24 05:52:33;;;;;;;4.78;2.30;;;;;;;;;;5074625;28;20024;-23
2023/07/24 05:54:59;;;;;;;1.80;1.70;;;;;;;;;;5074028;28;20105;-20
2023/07/24 05:57:25;;;;;;;1.98;1.80;;;;;;;;;;5074328;28;20095;-21
2023/07/24 05:59:52;;;;;;;4.82;2.10;;;;;;;;;;5074376;28;20031;-20
2023/07/24 06:02:18;;;;;;;4.35;2.53;;;;;;;;;;5506651;22;20052;-25
2023/07/24 06:04:44;;;;;;;3.75;1.95;;;;;;;;;;5074402;28;20078;-26
2023/07/24 06:07:10;;;;;;;6.68;2.88;;;;;;;;;;5074289;28;20103;-29
2023/07/24 06:09:36;;;;;;;3.38;2.28;;;;;;;;;;5074153;28;20058;-28
2023/07/24 06:12:02;;;;;;;2.42;2.22;;;;;;;;;;5074102;28;20036;-30
2023/07/24 06:14:28;;;;;;;4.28;3.10;;;;;;;;;;5074029;28;20028;-27
2023/07/24 06:16:55;;;;;;;4.30;2.20;;;;;;;;;;5074084;28;20029;-29
2023/07/24 06:19:21;;;;;;;3.60;1.90;;;;;;;;;;5074350;28;20524;-28
2023/07/24 06:21:47;;;;;;;2.42;1.77;;;;;;;;;;5074073;28;20024;-27
2023/07/24 06:24:13;;;;;;;2.08;1.90;;;;;;;;;;5074171;28;20052;-28
2023/07/24 06:26:40;;;;;;;3.92;1.92;;;;;;;;;;5073934;28;20572;-29
2023/07/24 06:29:06;;;;;;;2.45;2.25;;;;;;;;;;5074232;28;20025;-28
2023/07/24 06:31:32;;;;;;;1.83;1.70;;;;;;;;;;5074479;28;20062;-32
2023/07/24 06:33:58;;;;;;;4.85;2.17;;;;;;;;;;5073837;28;20533;-29
2023/07/24 06:36:24;;;;;;;3.45;2.20;;;;;;;;;;5073953;28;20028;-28
2023/07/24 06:38:50;;;;;;;2.65;2.08;;;;;;;;;;5074180;28;20039;-27
2023/07/24 06:41:16;;;;;;;3.40;2.33;;;;;;;;;;5073879;28;20021;-29
2023/07/24 06:43:43;;;;;;;2.30;1.75;;;;;;;;;;5073745;28;20047;-26
2023/07/24 06:46:09;;;;;;;2.53;2.30;;;;;;;;;;5074136;28;20025;-31
2023/07/24 06:48:35;;;;;;;7.03;2.00;;;;;;;;;;5073886;28;20035;-28
2023/07/24 06:51:01;;;;;;;2.70;2.00;;;;;;;;;;5073877;28;20016;-28
2023/07/24 06:53:27;;;;;;;9.50;2.13;;;;;;;;;;5073635;28;20078;-27
2023/07/24 06:55:53;;;;;;;6.20;2.05;;;;;;;;;;5073722;28;20028;-30
2023/07/24 06:58:19;;;;;;;5.10;2.00;;;;;;;;;;5073950;28;20359;-28
2023/07/24 07:00:46;;;;;;;2.50;2.30;;;;;;;;;;5073635;28;20016;-32
2023/07/24 07:03:12;;;;;;;8.20;2.13;;;;;;;;;;5073430;28;20052;-27
2023/07/24 07:05:38;;;;;;;4.97;2.28;;;;;;;;;;5074268;28;20096;-28
2023/07/24 07:08:04;;;;;;;6.22;2.17;;;;;;;;;;5077651;28;20028;-27
2023/07/24 07:10:33;;;;;;;2.58;1.98;;;;;;;;;;5077601;28;20020;-27
2023/07/24 07:12:59;;;;;;;2.80;2.47;;;;;;;;;;5059315;28;20027;-28
2023/07/24 07:15:26;;;;;;;4.72;2.35;;;;;;;;;;5077010;28;20133;-28
2023/07/24 07:17:52;;;;;;;4.50;2.63;;;;;;;;;;5059131;28;20021;-27
2023/07/24 07:20:18;;;;;;;6.05;2.40;;;;;;;;;;5077151;28;20042;-27
2023/07/24 07:22:44;;;;;;;4.75;2.17;;;;;;;;;;5077157;28;20119;-29
2023/07/24 07:25:10;;;;;;;10.70;2.33;;;;;;;;;;5076878;28;20087;-29
2023/07/24 07:27:36;;;;;;;4.53;2.58;;;;;;;;;;5077110;28;20033;-26
2023/07/24 07:30:03;;;;;;;3.08;2.78;;;;;;;;;;5059310;28;20025;-27
2023/07/24 07:32:30;;;;;;;5.90;2.33;;;;;;;;;;5076841;28;20031;-30
2023/07/24 07:34:56;;;;;;;2.90;2.33;;;;;;;;;;5059272;28;20501;-33
2023/07/24 07:37:22;;;;;;;2.70;2.35;;;;;;;;;;5059193;28;20478;-28
2023/07/24 07:39:49;;;;;;;3.03;2.10;;;;;;;;;;5076599;28;20024;-28
2023/07/24 07:42:15;;;;;;;3.00;2.10;;;;;;;;;;5076710;28;20021;-28
2023/07/24 07:44:41;;;;;;;8.57;2.20;;;;;;;;;;5076762;28;20043;-29
2023/07/24 07:47:07;;;;;;;3.08;2.22;;;;;;;;;;5076612;28;20024;-30
2023/07/24 07:49:33;;;;;;;2.50;2.20;;;;;;;;;;5076591;28;20405;-27
2023/07/24 07:51:59;;;;;;;4.55;2.28;;;;;;;;;;5058850;28;20455;-28
2023/07/24 07:54:25;;;;;;;4.70;2.42;;;;;;;;;;5076739;28;20400;-26
2023/07/24 07:56:52;;;;;;;3.65;2.35;;;;;;;;;;5059165;28;20020;-29
2023/07/24 07:59:19;;;;;;;7.72;2.17;;;;;;;;;;5076370;28;20020;-29
2023/07/24 08:01:45;;;;;;;7.53;2.20;;;;;;;;;;5076274;28;20032;-30
2023/07/24 08:04:12;;;;;;;6.43;2.80;;;;;;;;;;5076056;28;20367;-26
2023/07/24 08:06:38;;;;;;;7.00;2.75;;;;;;;;;;5076414;28;20036;-29
2023/07/24 08:09:04;;;;;;;10.50;2.65;;;;;;;;;;5058614;28;20051;-26
2023/07/24 08:11:30;;;;;;;14.40;2.88;;;;;;;;;;5076531;28;20061;-26
2023/07/24 08:13:56;;;;;;;9.48;2.63;;;;;;;;;;5075770;28;20033;-27
2023/07/24 08:16:22;;;;;;;7.18;3.28;;;;;;;;;;5075858;28;20107;-31
2023/07/24 08:18:49;;;;;;;8.38;2.20;;;;;;;;;;5076357;28;20031;-30
2023/07/24 08:21:15;;;;;;;6.03;2.88;;;;;;;;;;5075842;28;20021;-29
2023/07/24 08:23:41;;;;;;;9.05;2.00;;;;;;;;;;5075693;28;20103;-27
2023/07/24 08:26:07;;;;;;;9.23;2.63;;;;;;;;;;5075742;28;20024;-27
2023/07/24 08:28:36;;;;;;;8.23;2.58;;;;;;;;;;5076778;28;20051;-29
2023/07/24 08:31:02;;;;;;;5.43;2.95;;;;;;;;;;5075849;28;20032;-30
2023/07/24 08:33:29;;;;;;;4.82;2.35;;;;;;;;;;5075626;28;20032;-27
2023/07/24 08:36:02;;;;;;;3.08;2.85;;;;;;;;;;5076203;28;20096;-28
2023/07/24 08:38:28;;;;;;;7.85;2.10;;;;;;;;;;5075272;28;20020;-28
2023/07/24 08:41:02;;;;;;;4.75;2.85;;;;;;;;;;5075453;28;20058;-27
2023/07/24 08:43:32;;;;;;;7.35;2.28;;;;;;;;;;5075656;28;20429;-28
2023/07/24 08:45:59;;;;;;;5.95;2.58;;;;;;;;;;5075736;28;20043;-26
2023/07/24 08:48:27;;;;;;;8.00;2.50;;;;;;;;;;5075583;28;20024;-26
2023/07/24 08:50:53;;;;;;;8.13;3.65;;;;;;;;;;5075630;28;20458;-26
2023/07/24 08:53:20;;;;;;;9.73;2.85;;;;;;;;;;5057561;28;20028;-25
2023/07/24 08:55:51;;;;;;;5.55;2.58;;;;;;;;;;5075411;28;20061;-25
2023/07/24 08:58:17;;;;;;;9.77;2.78;;;;;;;;;;5075439;28;20328;-28
2023/07/24 09:00:43;;;;;;;8.05;2.92;;;;;;;;;;5075101;28;20048;-27
2023/07/24 09:03:10;;;;;;;2.55;2.17;;;;;;;;;;5074791;28;20091;-26
2023/07/24 09:05:36;;;;;;;5.35;2.53;;;;;;;;;;5075106;28;20028;-30
2023/07/24 09:08:02;;;;;;;2.78;2.58;;;;;;;;;;5075022;28;20025;-28
2023/07/24 09:10:29;;;;;;;5.05;2.50;;;;;;;;;;5074989;28;20025;-27
2023/07/24 09:12:56;;;;;;;2.78;2.33;;;;;;;;;;5074862;28;20021;-25
2023/07/24 09:15:22;;;;;;;3.92;2.78;;;;;;;;;;5075084;28;20356;-28
2023/07/24 09:17:51;;;;;;;3.10;2.55;;;;;;;;;;5074833;28;20074;-28
2023/07/24 09:20:18;;;;;;;4.22;2.50;;;;;;;;;;5074808;28;20404;-30
2023/07/24 09:22:51;;;;;;;9.00;2.92;;;;;;;;;;5074964;28;20024;-29
2023/07/24 09:25:18;;;;;;;6.75;2.55;;;;;;;;;;5056639;28;20490;-30
2023/07/24 09:27:44;;;;;;;5.22;2.30;;;;;;;;;;5074855;28;20040;-30
2023/07/24 09:30:14;;;;;;;4.50;2.83;;;;;;;;;;5074660;28;20048;-27
2023/07/24 09:32:40;;;;;;;8.10;2.47;;;;;;;;;;5057622;28;20363;-27
2023/07/24 09:35:19;;;;;;;10.73;2.60;;;;;;;;;;5075321;28;20436;-28
2023/07/24 09:37:45;;;;;;;10.23;2.67;;;;;;;;;;5074412;28;20108;-27
2023/07/24 09:40:12;;;;;;;4.10;2.58;;;;;;;;;;5074377;28;20074;-26
2023/07/24 09:42:42;;;;;;;8.90;2.63;;;;;;;;;;5074672;28;20024;-26
2023/07/24 09:45:08;;;;;;;9.98;2.38;;;;;;;;;;5074328;28;20024;-30
2023/07/24 09:47:35;;;;;;;10.65;2.88;;;;;;;;;;5074387;28;20107;-29
2023/07/24 09:50:03;;;;;;;9.38;2.50;;;;;;;;;;5074650;28;20040;-27
2023/07/24 09:52:30;;;;;;;7.68;3.22;;;;;;;;;;5074332;28;20105;-30
2023/07/24 09:54:59;;;;;;;22.83;4.57;;;;;;;;;;5074309;28;20421;-29
2023/07/24 09:57:26;;;;;;;9.98;2.78;;;;;;;;;;5056727;28;20096;-29
2023/07/24 09:59:53;;;;;;;6.00;2.70;;;;;;;;;;5056590;28;20044;-25
2023/07/24 10:02:20;;;;;;;17.05;3.50;;;;;;;;;;5073878;28;20036;-26
2023/07/24 10:04:47;;;;;;;11.95;2.83;;;;;;;;;;5074470;28;20462;-27
2023/07/24 10:07:15;;;;;;;14.85;3.60;;;;;;;;;;5074304;28;20318;-26
2023/07/24 10:09:42;;;;;;;11.70;2.90;;;;;;;;;;5074442;28;20358;-26
2023/07/24 10:12:08;;;;;;;18.60;2.90;;;;;;;;;;5074674;28;20092;-28
2023/07/24 10:14:35;;;;;;;17.73;3.92;;;;;;;;;;5074226;28;20044;-27
2023/07/24 10:17:01;;;;;;;16.90;3.17;;;;;;;;;;5056950;28;20136;-25
2023/07/24 10:19:48;;;;;;;17.75;4.15;;;;;;;;;;5074507;28;20044;-27
2023/07/24 10:22:20;;;;;;;9.65;2.92;;;;;;;;;;5074563;28;20370;-32
2023/07/24 10:24:47;;;;;;;14.70;3.65;;;;;;;;;;5074196;28;20032;-27
2023/07/24 10:27:13;;;;;;;9.45;3.13;;;;;;;;;;5074350;28;20028;-28
2023/07/24 10:29:40;;;;;;;6.47;3.30;;;;;;;;;;5074130;28;20028;-26
2023/07/24 10:32:26;;;;;;;11.15;2.90;;;;;;;;;;5073981;28;20025;-27
2023/07/24 10:35:20;;;;;;;17.50;3.00;;;;;;;;;;5074029;28;20111;-29
2023/07/24 10:37:47;;;;;;;6.07;2.85;;;;;;;;;;5073116;28;20028;-29
2023/07/24 10:40:20;;;;;;;11.57;2.97;;;;;;;;;;5074464;28;20025;-28
2023/07/24 10:42:47;;;;;;;7.13;2.65;;;;;;;;;;5077216;28;20347;-28
2023/07/24 10:45:13;;;;;;;8.13;3.00;;;;;;;;;;5077677;28;20031;-27
2023/07/24 10:47:39;;;;;;;12.15;2.72;;;;;;;;;;5077678;28;20359;-31
2023/07/24 10:50:05;;;;;;;8.82;2.70;;;;;;;;;;5077845;28;20115;-27
2023/07/24 10:52:34;;;;;;;19.58;3.05;;;;;;;;;;5059775;28;20028;-32
2023/07/24 10:55:02;;;;;;;16.52;2.92;;;;;;;;;;5060882;28;20099;-25
2023/07/24 10:57:28;;;;;;;18.67;3.28;;;;;;;;;;5077840;28;20021;-27
2023/07/24 10:59:54;;;;;;;12.75;3.05;;;;;;;;;;5077456;28;20085;-26
2023/07/24 11:02:21;;;;;;;11.55;3.08;;;;;;;;;;5077136;28;20447;-27
2023/07/24 11:04:47;;;;;;;9.52;2.55;;;;;;;;;;5077486;28;20131;-30
2023/07/24 11:07:14;;;;;;;19.33;2.42;;;;;;;;;;5077660;28;20036;-28
2023/07/24 11:09:40;;;;;;;15.75;2.92;;;;;;;;;;5077867;28;20035;-27
2023/07/24 11:12:16;;;;;;;4.93;2.33;;;;;;;;;;5077628;28;20039;-30
2023/07/24 11:14:48;;;;;;;8.27;2.10;;;;;;;;;;5059500;28;20040;-26
2023/07/24 11:17:14;;;;;;;10.43;2.67;;;;;;;;;;5077367;28;20142;-28
2023/07/24 11:19:41;;;;;;;8.13;2.60;;;;;;;;;;5077151;28;20402;-28
2023/07/24 11:22:07;;;;;;;13.63;2.80;;;;;;;;;;5077172;28;20435;-29
2023/07/24 11:24:33;;;;;;;15.75;2.60;;;;;;;;;;5077264;28;20028;-28
2023/07/24 11:27:00;;;;;;;12.25;2.70;;;;;;;;;;5076902;28;20024;-29
2023/07/24 11:29:27;;;;;;;8.88;2.40;;;;;;;;;;5077071;28;20025;-32
2023/07/24 11:31:59;;;;;;;4.47;2.35;;;;;;;;;;5076681;28;20029;-27
2023/07/24 11:34:25;;;;;;;8.90;2.42;;;;;;;;;;5077020;28;20032;-30
2023/07/24 11:36:52;;;;;;;7.07;2.45;;;;;;;;;;5077322;28;20025;-28
2023/07/24 11:39:24;;;;;;;7.97;2.42;;;;;;;;;;5077585;28;20042;-25
2023/07/24 11:41:50;;;;;;;5.35;3.03;;;;;;;;;;5076587;28;20024;-27
2023/07/24 11:44:24;;;;;;;3.95;2.50;;;;;;;;;;5058669;28;20447;-26
2023/07/24 11:46:50;;;;;;;3.42;2.50;;;;;;;;;;5076657;28;20048;-29
2023/07/24 11:49:16;;;;;;;8.98;3.25;;;;;;;;;;5076508;28;20082;-26
2023/07/24 11:51:42;;;;;;;6.20;2.80;;;;;;;;;;5076596;28;20025;-31
2023/07/24 11:54:11;;;;;;;8.55;2.63;;;;;;;;;;5076333;28;20103;-27
2023/07/24 11:56:37;;;;;;;7.00;2.50;;;;;;;;;;5076913;28;20012;-26
2023/07/24 11:59:13;;;;;;;13.98;3.05;;;;;;;;;;5076973;28;20511;-26
2023/07/24 12:01:39;;;;;;;4.85;2.90;;;;;;;;;;5059390;28;20092;-29
2023/07/24 12:04:05;;;;;;;10.82;3.30;;;;;;;;;;5056975;28;20041;-29
2023/07/24 12:06:32;;;;;;;9.68;2.95;;;;;;;;;;5076087;28;20108;-33
2023/07/24 12:09:05;;;;;;;6.63;2.50;;;;;;;;;;5076352;28;20355;-28
2023/07/24 12:11:32;;;;;;;4.05;3.53;;;;;;;;;;5076480;28;20343;-26
2023/07/24 12:13:58;;;;;;;9.57;3.33;;;;;;;;;;5076247;28;20134;-28
2023/07/24 12:16:25;;;;;;;4.80;2.55;;;;;;;;;;5042202;28;20032;-28
2023/07/24 12:18:51;;;;;;;12.10;2.92;;;;;;;;;;5076328;28;20020;-29
2023/07/24 12:21:17;;;;;;;13.88;3.05;;;;;;;;;;5076737;28;20355;-30
2023/07/24 12:23:43;;;;;;;9.43;2.63;;;;;;;;;;5076137;28;20031;-27
2023/07/24 12:26:09;;;;;;;4.28;3.13;;;;;;;;;;5075907;28;20024;-30
2023/07/24 12:28:35;;;;;;;5.60;3.00;;;;;;;;;;5058217;28;20102;-28
2023/07/24 12:31:02;;;;;;;7.53;2.47;;;;;;;;;;5076136;28;20035;-29
2023/07/24 12:33:28;;;;;;;5.97;2.75;;;;;;;;;;5075673;28;20350;-30
2023/07/24 12:35:54;;;;;;;6.82;2.97;;;;;;;;;;5076008;28;20478;-30
2023/07/24 12:38:20;;;;;;;6.32;3.40;;;;;;;;;;5075718;28;20308;-27
2023/07/24 12:40:47;;;;;;;3.92;2.65;;;;;;;;;;5075703;28;20401;-28
2023/07/24 12:43:13;;;;;;;5.00;2.85;;;;;;;;;;5075708;28;20131;-27
2023/07/24 12:45:39;;;;;;;3.30;2.80;;;;;;;;;;5075499;28;20033;-29
2023/07/24 12:48:05;;;;;;;9.60;2.50;;;;;;;;;;5075460;28;20032;-30
2023/07/24 12:50:31;;;;;;;3.55;2.67;;;;;;;;;;5075390;28;20086;-30
2023/07/24 12:52:57;;;;;;;8.13;2.65;;;;;;;;;;5075218;28;20032;-30
2023/07/24 12:55:24;;;;;;;7.40;3.17;;;;;;;;;;5075509;28;20028;-28
2023/07/24 12:57:50;;;;;;;4.15;1.98;;;;;;;;;;5075204;28;20096;-26
2023/07/24 13:00:17;;;;;;;4.38;2.80;;;;;;;;;;5075169;28;20021;-29
2023/07/24 13:02:43;;;;;;;7.32;2.50;;;;;;;;;;5075576;28;20036;-27
2023/07/24 13:05:09;;;;;;;15.05;3.42;;;;;;;;;;5074404;28;20025;-27
2023/07/24 13:07:35;;;;;;;9.02;3.10;;;;;;;;;;5075212;28;20031;-29
2023/07/24 13:10:02;;;;;;;6.82;2.63;;;;;;;;;;5075205;28;20036;-27
2023/07/24 13:12:28;;;;;;;16.42;3.10;;;;;;;;;;5074841;28;20024;-29
2023/07/24 13:14:54;;;;;;;8.70;2.88;;;;;;;;;;5074776;28;20128;-28
2023/07/24 13:17:20;;;;;;;7.25;2.95;;;;;;;;;;5075140;28;20024;-29
2023/07/24 13:19:46;;;;;;;5.50;2.80;;;;;;;;;;5074894;28;20033;-27
2023/07/24 13:22:13;;;;;;;10.30;2.70;;;;;;;;;;5074576;28;20435;-29
2023/07/24 13:24:39;;;;;;;7.15;2.85;;;;;;;;;;5075005;28;20028;-29
2023/07/24 13:27:05;;;;;;;11.05;3.80;;;;;;;;;;5074795;28;20032;-30
2023/07/24 13:29:31;;;;;;;9.50;2.83;;;;;;;;;;5074793;28;20029;-29
2023/07/24 13:31:58;;;;;;;5.43;2.53;;;;;;;;;;5074435;28;20465;-27
2023/07/24 13:34:24;;;;;;;5.25;2.75;;;;;;;;;;5057081;28;20025;-26
2023/07/24 13:36:51;;;;;;;9.63;2.65;;;;;;;;;;5074618;28;20408;-26
2023/07/24 13:39:17;;;;;;;5.68;2.70;;;;;;;;;;5075496;28;20086;-26
2023/07/24 13:41:43;;;;;;;3.90;2.63;;;;;;;;;;5075261;28;20017;-29
2023/07/24 13:44:10;;;;;;;9.25;2.65;;;;;;;;;;5074798;28;20060;-31
2023/07/24 13:46:36;;;;;;;6.55;2.60;;;;;;;;;;5074849;28;20032;-29
2023/07/24 13:49:03;;;;;;;7.03;2.92;;;;;;;;;;5074793;28;20024;-30
2023/07/24 13:51:29;;;;;;;5.97;2.63;;;;;;;;;;5074570;28;20048;-28
2023/07/24 13:53:55;;;;;;;4.03;2.55;;;;;;;;;;5056327;28;20029;-29
2023/07/24 13:56:25;;;;;;;6.15;2.55;;;;;;;;;;5074719;28;20079;-28
2023/07/24 13:58:51;;;;;;;6.95;2.88;;;;;;;;;;5074990;28;20020;-26
2023/07/24 14:01:17;;;;;;;6.68;3.53;;;;;;;;;;5074532;28;20017;-29
2023/07/24 14:03:43;;;;;;;6.80;2.65;;;;;;;;;;5074098;28;20048;-29
2023/07/24 14:06:09;;;;;;;2.72;2.50;;;;;;;;;;5074816;28;20052;-28
2023/07/24 14:08:36;;;;;;;3.17;2.55;;;;;;;;;;5074342;28;20359;-33
2023/07/24 14:11:03;;;;;;;8.23;3.42;;;;;;;;;;5074366;28;20025;-27
2023/07/24 14:13:29;;;;;;;5.85;3.63;;;;;;;;;;5074255;28;20146;-27
2023/07/24 14:15:55;;;;;;;7.07;3.35;;;;;;;;;;5076195;28;20021;-27
2023/07/24 14:18:21;;;;;;;7.13;2.65;;;;;;;;;;5078421;28;20028;-28
2023/07/24 14:20:47;;;;;;;4.05;3.40;;;;;;;;;;5078372;28;20024;-26
2023/07/24 14:23:14;;;;;;;4.65;3.38;;;;;;;;;;5078410;28;20036;-27
2023/07/24 14:25:40;;;;;;;6.05;3.15;;;;;;;;;;5078359;28;20120;-28
2023/07/24 14:28:06;;;;;;;4.68;2.58;;;;;;;;;;5078131;28;20031;-28
2023/07/24 14:30:32;;;;;;;5.72;2.72;;;;;;;;;;5078427;28;20025;-26
2023/07/24 14:32:58;;;;;;;4.35;2.97;;;;;;;;;;5078166;28;20113;-28
2023/07/24 14:35:24;;;;;;;9.50;3.55;;;;;;;;;;5077820;28;20036;-30
2023/07/24 14:37:50;;;;;;;10.35;3.30;;;;;;;;;;5060606;28;20028;-29